sensor_id;sensor_type;location;lat;lon;timestamp;temperature;humidity
46758;DHT22;32509;47.750;-3.396;2023-07-28T00:02:12;19.20;99.90
46758;DHT22;32509;47.750;-3.396;2023-07-28T00:04:38;19.20;99.90
46758;DHT22;32509;47.750;-3.396;2023-07-28T00:07:04;19.20;99.90
46758;DHT22;32509;47.750;-3.396;2023-07-28T00:09:31;19.20;99.90
46758;DHT22;32509;47.750;-3.396;2023-07-28T00:12:00;19.20;99.90
46758;DHT22;32509;47.750;-3.396;2023-07-28T00:14:27;19.20;99.90
46758;DHT22;32509;47.750;-3.396;2023-07-28T00:16:54;19.20;99.90
46758;DHT22;32509;47.750;-3.396;2023-07-28T00:19:20;19.20;99.90
46758;DHT22;32509;47.750;-3.396;2023-07-28T00:21:50;19.20;99.90
46758;DHT22;32509;47.750;-3.396;2023-07-28T00:24:16;19.20;99.90
46758;DHT22;32509;47.750;-3.396;2023-07-28T00:26:43;19.20;99.90
46758;DHT22;32509;47.750;-3.396;2023-07-28T00:29:09;19.20;99.90
46758;DHT22;32509;47.750;-3.396;2023-07-28T00:31:35;19.20;99.90
46758;DHT22;32509;47.750;-3.396;2023-07-28T00:34:02;19.20;99.90
46758;DHT22;32509;47.750;-3.396;2023-07-28T00:36:28;19.20;99.90
46758;DHT22;32509;47.750;-3.396;2023-07-28T00:38:53;19.20;99.90
46758;DHT22;32509;47.750;-3.396;2023-07-28T00:41:19;19.20;99.90
46758;DHT22;32509;47.750;-3.396;2023-07-28T00:43:45;19.20;99.90
46758;DHT22;32509;47.750;-3.396;2023-07-28T00:46:11;19.20;99.90
46758;DHT22;32509;47.750;-3.396;2023-07-28T00:48:37;19.20;99.90
46758;DHT22;32509;47.750;-3.396;2023-07-28T00:51:04;19.20;99.90
46758;DHT22;32509;47.750;-3.396;2023-07-28T00:53:30;19.20;99.90
46758;DHT22;32509;47.750;-3.396;2023-07-28T00:56:01;19.20;99.90
46758;DHT22;32509;47.750;-3.396;2023-07-28T00:58:27;19.20;99.90
46758;DHT22;32509;47.750;-3.396;2023-07-28T01:00:53;19.20;99.90
46758;DHT22;32509;47.750;-3.396;2023-07-28T01:03:19;19.20;99.90
46758;DHT22;32509;47.750;-3.396;2023-07-28T01:08:30;19.20;99.90
46758;DHT22;32509;47.750;-3.396;2023-07-28T01:10:58;19.20;99.90
46758;DHT22;32509;47.750;-3.396;2023-07-28T01:13:24;19.20;99.90
46758;DHT22;32509;47.750;-3.396;2023-07-28T01:15:49;19.20;99.90
46758;DHT22;32509;47.750;-3.396;2023-07-28T01:18:15;19.20;99.90
46758;DHT22;32509;47.750;-3.396;2023-07-28T01:20:42;19.20;99.90
46758;DHT22;32509;47.750;-3.396;2023-07-28T01:23:20;19.20;99.90
46758;DHT22;32509;47.750;-3.396;2023-07-28T01:26:05;19.20;99.90
46758;DHT22;32509;47.750;-3.396;2023-07-28T01:28:35;19.20;99.90
46758;DHT22;32509;47.750;-3.396;2023-07-28T01:31:06;19.20;99.90
46758;DHT22;32509;47.750;-3.396;2023-07-28T01:33:32;19.20;99.90
46758;DHT22;32509;47.750;-3.396;2023-07-28T01:35:59;19.20;99.90
46758;DHT22;32509;47.750;-3.396;2023-07-28T01:38:27;19.20;99.90
46758;DHT22;32509;47.750;-3.396;2023-07-28T01:40:53;19.20;99.90
46758;DHT22;32509;47.750;-3.396;2023-07-28T01:43:19;19.20;99.90
46758;DHT22;32509;47.750;-3.396;2023-07-28T01:45:44;19.20;99.90
46758;DHT22;32509;47.750;-3.396;2023-07-28T01:48:10;19.20;99.90
46758;DHT22;32509;47.750;-3.396;2023-07-28T01:50:36;19.20;99.90
46758;DHT22;32509;47.750;-3.396;2023-07-28T01:53:03;19.20;99.90
46758;DHT22;32509;47.750;-3.396;2023-07-28T01:55:29;19.20;99.90
46758;DHT22;32509;47.750;-3.396;2023-07-28T01:58:00;19.20;99.90
46758;DHT22;32509;47.750;-3.396;2023-07-28T02:00:26;19.20;99.90
46758;DHT22;32509;47.750;-3.396;2023-07-28T02:02:52;19.20;99.90
46758;DHT22;32509;47.750;-3.396;2023-07-28T02:05:18;19.20;99.90
46758;DHT22;32509;47.750;-3.396;2023-07-28T02:07:45;19.20;99.90
46758;DHT22;32509;47.750;-3.396;2023-07-28T02:10:10;19.20;99.90
46758;DHT22;32509;47.750;-3.396;2023-07-28T02:12:37;19.20;99.90
46758;DHT22;32509;47.750;-3.396;2023-07-28T02:15:04;19.20;99.90
46758;DHT22;32509;47.750;-3.396;2023-07-28T02:17:30;19.20;99.90
46758;DHT22;32509;47.750;-3.396;2023-07-28T02:19:59;19.20;99.90
46758;DHT22;32509;47.750;-3.396;2023-07-28T02:22:25;19.20;99.90
46758;DHT22;32509;47.750;-3.396;2023-07-28T02:24:51;19.10;99.90
46758;DHT22;32509;47.750;-3.396;2023-07-28T02:27:16;19.20;99.90
46758;DHT22;32509;47.750;-3.396;2023-07-28T02:29:42;19.20;99.90
46758;DHT22;32509;47.750;-3.396;2023-07-28T02:32:08;19.20;99.90
46758;DHT22;32509;47.750;-3.396;2023-07-28T02:34:34;19.20;99.90
46758;DHT22;32509;47.750;-3.396;2023-07-28T02:37:00;19.20;99.90
46758;DHT22;32509;47.750;-3.396;2023-07-28T02:39:28;19.10;99.90
46758;DHT22;32509;47.750;-3.396;2023-07-28T02:41:54;19.20;99.90
46758;DHT22;32509;47.750;-3.396;2023-07-28T02:44:20;19.10;99.90
46758;DHT22;32509;47.750;-3.396;2023-07-28T02:46:45;19.10;99.90
46758;DHT22;32509;47.750;-3.396;2023-07-28T02:49:11;19.10;99.90
46758;DHT22;32509;47.750;-3.396;2023-07-28T02:51:37;19.10;99.90
46758;DHT22;32509;47.750;-3.396;2023-07-28T02:54:02;19.10;99.90
46758;DHT22;32509;47.750;-3.396;2023-07-28T02:56:29;19.10;99.90
46758;DHT22;32509;47.750;-3.396;2023-07-28T02:58:55;19.10;99.90
46758;DHT22;32509;47.750;-3.396;2023-07-28T03:01:20;19.10;99.90
46758;DHT22;32509;47.750;-3.396;2023-07-28T03:03:46;19.10;99.90
46758;DHT22;32509;47.750;-3.396;2023-07-28T03:06:13;19.10;99.90
46758;DHT22;32509;47.750;-3.396;2023-07-28T03:08:38;19.10;99.90
46758;DHT22;32509;47.750;-3.396;2023-07-28T03:11:04;19.10;99.90
46758;DHT22;32509;47.750;-3.396;2023-07-28T03:13:30;19.10;99.90
46758;DHT22;32509;47.750;-3.396;2023-07-28T03:15:56;19.10;99.90
46758;DHT22;32509;47.750;-3.396;2023-07-28T03:18:21;19.10;99.90
46758;DHT22;32509;47.750;-3.396;2023-07-28T03:20:47;19.10;99.90
46758;DHT22;32509;47.750;-3.396;2023-07-28T03:23:13;19.10;99.90
46758;DHT22;32509;47.750;-3.396;2023-07-28T03:25:39;19.00;99.90
46758;DHT22;32509;47.750;-3.396;2023-07-28T03:28:05;19.00;99.90
46758;DHT22;32509;47.750;-3.396;2023-07-28T03:30:31;19.00;99.90
46758;DHT22;32509;47.750;-3.396;2023-07-28T03:32:57;19.00;99.90
46758;DHT22;32509;47.750;-3.396;2023-07-28T03:35:22;19.00;99.90
46758;DHT22;32509;47.750;-3.396;2023-07-28T03:37:48;19.00;99.90
46758;DHT22;32509;47.750;-3.396;2023-07-28T03:40:14;19.00;99.90
46758;DHT22;32509;47.750;-3.396;2023-07-28T03:42:40;19.00;99.90
46758;DHT22;32509;47.750;-3.396;2023-07-28T03:45:06;19.00;99.90
46758;DHT22;32509;47.750;-3.396;2023-07-28T03:47:32;19.00;99.90
46758;DHT22;32509;47.750;-3.396;2023-07-28T03:49:58;19.00;99.90
46758;DHT22;32509;47.750;-3.396;2023-07-28T03:52:23;19.00;99.90
46758;DHT22;32509;47.750;-3.396;2023-07-28T03:54:49;18.90;99.90
46758;DHT22;32509;47.750;-3.396;2023-07-28T03:57:15;19.00;99.90
46758;DHT22;32509;47.750;-3.396;2023-07-28T03:59:41;18.90;99.90
46758;DHT22;32509;47.750;-3.396;2023-07-28T04:02:06;18.90;99.90
46758;DHT22;32509;47.750;-3.396;2023-07-28T04:04:32;18.90;99.90
46758;DHT22;32509;47.750;-3.396;2023-07-28T04:06:58;18.90;99.90
46758;DHT22;32509;47.750;-3.396;2023-07-28T04:09:24;18.90;99.90
46758;DHT22;32509;47.750;-3.396;2023-07-28T04:11:49;18.90;99.90
46758;DHT22;32509;47.750;-3.396;2023-07-28T04:14:15;18.90;99.90
46758;DHT22;32509;47.750;-3.396;2023-07-28T04:16:41;18.90;99.90
46758;DHT22;32509;47.750;-3.396;2023-07-28T04:19:07;18.90;99.90
46758;DHT22;32509;47.750;-3.396;2023-07-28T04:21:32;18.90;99.90
46758;DHT22;32509;47.750;-3.396;2023-07-28T04:23:58;18.80;99.90
46758;DHT22;32509;47.750;-3.396;2023-07-28T04:26:25;18.90;99.90
46758;DHT22;32509;47.750;-3.396;2023-07-28T04:28:51;18.90;99.90
46758;DHT22;32509;47.750;-3.396;2023-07-28T04:31:17;18.90;99.90
46758;DHT22;32509;47.750;-3.396;2023-07-28T04:33:43;18.90;99.90
46758;DHT22;32509;47.750;-3.396;2023-07-28T04:36:09;18.90;99.90
46758;DHT22;32509;47.750;-3.396;2023-07-28T04:38:35;18.90;99.90
46758;DHT22;32509;47.750;-3.396;2023-07-28T04:41:01;18.80;99.90
46758;DHT22;32509;47.750;-3.396;2023-07-28T04:43:27;18.90;99.90
46758;DHT22;32509;47.750;-3.396;2023-07-28T04:45:53;18.90;99.90
46758;DHT22;32509;47.750;-3.396;2023-07-28T04:48:19;18.90;99.90
46758;DHT22;32509;47.750;-3.396;2023-07-28T04:50:44;18.90;99.90
46758;DHT22;32509;47.750;-3.396;2023-07-28T04:53:10;18.90;99.90
46758;DHT22;32509;47.750;-3.396;2023-07-28T04:55:36;18.80;99.90
46758;DHT22;32509;47.750;-3.396;2023-07-28T04:58:02;18.90;99.90
46758;DHT22;32509;47.750;-3.396;2023-07-28T05:00:28;18.90;99.90
46758;DHT22;32509;47.750;-3.396;2023-07-28T05:02:54;18.80;99.90
46758;DHT22;32509;47.750;-3.396;2023-07-28T05:05:20;18.80;99.90
46758;DHT22;32509;47.750;-3.396;2023-07-28T05:07:48;18.90;99.90
46758;DHT22;32509;47.750;-3.396;2023-07-28T05:10:14;18.80;99.90
46758;DHT22;32509;47.750;-3.396;2023-07-28T05:12:39;18.90;99.90
46758;DHT22;32509;47.750;-3.396;2023-07-28T05:15:06;18.90;99.90
46758;DHT22;32509;47.750;-3.396;2023-07-28T05:17:36;18.90;99.90
46758;DHT22;32509;47.750;-3.396;2023-07-28T05:20:02;18.90;99.90
46758;DHT22;32509;47.750;-3.396;2023-07-28T05:22:28;18.80;99.90
46758;DHT22;32509;47.750;-3.396;2023-07-28T05:24:54;18.90;99.90
46758;DHT22;32509;47.750;-3.396;2023-07-28T05:27:20;18.90;99.90
46758;DHT22;32509;47.750;-3.396;2023-07-28T05:29:46;18.90;99.90
46758;DHT22;32509;47.750;-3.396;2023-07-28T05:32:11;18.90;99.90
46758;DHT22;32509;47.750;-3.396;2023-07-28T05:34:37;18.90;99.90
46758;DHT22;32509;47.750;-3.396;2023-07-28T05:37:04;18.90;99.90
46758;DHT22;32509;47.750;-3.396;2023-07-28T05:39:30;18.90;99.90
46758;DHT22;32509;47.750;-3.396;2023-07-28T05:41:55;18.90;99.90
46758;DHT22;32509;47.750;-3.396;2023-07-28T05:44:21;18.90;99.90
46758;DHT22;32509;47.750;-3.396;2023-07-28T05:46:47;18.90;99.90
46758;DHT22;32509;47.750;-3.396;2023-07-28T05:49:14;18.90;99.90
46758;DHT22;32509;47.750;-3.396;2023-07-28T05:51:39;18.90;99.90
46758;DHT22;32509;47.750;-3.396;2023-07-28T05:54:05;18.90;99.90
46758;DHT22;32509;47.750;-3.396;2023-07-28T05:56:31;18.90;99.90
46758;DHT22;32509;47.750;-3.396;2023-07-28T05:58:57;18.90;99.90
46758;DHT22;32509;47.750;-3.396;2023-07-28T06:01:22;18.90;99.90
46758;DHT22;32509;47.750;-3.396;2023-07-28T06:03:50;18.90;99.90
46758;DHT22;32509;47.750;-3.396;2023-07-28T06:06:17;18.90;99.90
46758;DHT22;32509;47.750;-3.396;2023-07-28T06:08:44;18.90;99.90
46758;DHT22;32509;47.750;-3.396;2023-07-28T06:11:09;18.90;99.90
46758;DHT22;32509;47.750;-3.396;2023-07-28T06:13:35;18.90;99.90
46758;DHT22;32509;47.750;-3.396;2023-07-28T06:16:01;18.90;99.90
46758;DHT22;32509;47.750;-3.396;2023-07-28T06:18:27;19.00;99.90
46758;DHT22;32509;47.750;-3.396;2023-07-28T06:20:52;19.00;99.90
46758;DHT22;32509;47.750;-3.396;2023-07-28T06:23:18;19.00;99.90
46758;DHT22;32509;47.750;-3.396;2023-07-28T06:25:44;19.00;99.90
46758;DHT22;32509;47.750;-3.396;2023-07-28T06:28:12;19.00;99.90
46758;DHT22;32509;47.750;-3.396;2023-07-28T06:30:38;19.00;99.90
46758;DHT22;32509;47.750;-3.396;2023-07-28T06:33:08;19.00;99.90
46758;DHT22;32509;47.750;-3.396;2023-07-28T06:35:34;19.00;99.90
46758;DHT22;32509;47.750;-3.396;2023-07-28T06:38:01;19.00;99.90
46758;DHT22;32509;47.750;-3.396;2023-07-28T06:40:27;19.00;99.90
46758;DHT22;32509;47.750;-3.396;2023-07-28T06:42:53;19.00;99.90
46758;DHT22;32509;47.750;-3.396;2023-07-28T06:45:20;19.00;99.90
46758;DHT22;32509;47.750;-3.396;2023-07-28T06:47:46;19.00;99.90
46758;DHT22;32509;47.750;-3.396;2023-07-28T06:50:12;19.00;99.90
46758;DHT22;32509;47.750;-3.396;2023-07-28T06:52:38;19.00;99.90
46758;DHT22;32509;47.750;-3.396;2023-07-28T06:55:04;19.00;99.90
46758;DHT22;32509;47.750;-3.396;2023-07-28T06:57:30;19.00;99.90
46758;DHT22;32509;47.750;-3.396;2023-07-28T06:59:57;19.00;99.90
46758;DHT22;32509;47.750;-3.396;2023-07-28T07:02:23;19.00;99.90
46758;DHT22;32509;47.750;-3.396;2023-07-28T07:04:49;19.00;99.90
46758;DHT22;32509;47.750;-3.396;2023-07-28T07:07:15;19.00;99.90
46758;DHT22;32509;47.750;-3.396;2023-07-28T07:09:41;19.10;99.90
46758;DHT22;32509;47.750;-3.396;2023-07-28T07:12:08;19.00;99.90
46758;DHT22;32509;47.750;-3.396;2023-07-28T07:14:34;19.10;99.90
46758;DHT22;32509;47.750;-3.396;2023-07-28T07:17:00;19.10;99.90
46758;DHT22;32509;47.750;-3.396;2023-07-28T07:19:29;19.10;99.90
46758;DHT22;32509;47.750;-3.396;2023-07-28T07:21:56;19.10;99.90
46758;DHT22;32509;47.750;-3.396;2023-07-28T07:24:21;19.10;99.90
46758;DHT22;32509;47.750;-3.396;2023-07-28T07:26:47;19.10;99.90
46758;DHT22;32509;47.750;-3.396;2023-07-28T07:29:13;19.10;99.90
46758;DHT22;32509;47.750;-3.396;2023-07-28T07:31:39;19.10;99.90
46758;DHT22;32509;47.750;-3.396;2023-07-28T07:34:05;19.10;99.90
46758;DHT22;32509;47.750;-3.396;2023-07-28T07:36:31;19.10;99.90
46758;DHT22;32509;47.750;-3.396;2023-07-28T07:38:57;19.10;99.90
46758;DHT22;32509;47.750;-3.396;2023-07-28T07:41:23;19.10;99.90
46758;DHT22;32509;47.750;-3.396;2023-07-28T07:43:53;19.10;99.90
46758;DHT22;32509;47.750;-3.396;2023-07-28T07:46:19;19.20;99.90
46758;DHT22;32509;47.750;-3.396;2023-07-28T07:48:45;19.20;99.90
46758;DHT22;32509;47.750;-3.396;2023-07-28T07:51:12;19.20;99.90
46758;DHT22;32509;47.750;-3.396;2023-07-28T07:53:38;19.20;99.90
46758;DHT22;32509;47.750;-3.396;2023-07-28T07:56:05;19.20;99.90
46758;DHT22;32509;47.750;-3.396;2023-07-28T07:58:31;19.20;99.90
46758;DHT22;32509;47.750;-3.396;2023-07-28T08:00:57;19.20;99.90
46758;DHT22;32509;47.750;-3.396;2023-07-28T08:03:22;19.20;99.90
46758;DHT22;32509;47.750;-3.396;2023-07-28T08:05:50;19.20;99.90
46758;DHT22;32509;47.750;-3.396;2023-07-28T08:08:17;19.20;99.90
46758;DHT22;32509;47.750;-3.396;2023-07-28T08:10:46;19.20;99.90
46758;DHT22;32509;47.750;-3.396;2023-07-28T08:13:13;19.20;99.90
46758;DHT22;32509;47.750;-3.396;2023-07-28T08:15:38;19.30;99.90
46758;DHT22;32509;47.750;-3.396;2023-07-28T08:18:04;19.30;99.90
46758;DHT22;32509;47.750;-3.396;2023-07-28T08:20:30;19.30;99.90
46758;DHT22;32509;47.750;-3.396;2023-07-28T08:22:56;19.30;99.90
46758;DHT22;32509;47.750;-3.396;2023-07-28T08:25:21;19.30;99.90
46758;DHT22;32509;47.750;-3.396;2023-07-28T08:27:50;19.30;99.90
46758;DHT22;32509;47.750;-3.396;2023-07-28T08:30:16;19.30;99.90
46758;DHT22;32509;47.750;-3.396;2023-07-28T08:32:42;19.40;99.90
46758;DHT22;32509;47.750;-3.396;2023-07-28T08:35:09;19.30;99.90
46758;DHT22;32509;47.750;-3.396;2023-07-28T08:37:35;19.40;99.90
46758;DHT22;32509;47.750;-3.396;2023-07-28T08:40:01;19.30;99.90
46758;DHT22;32509;47.750;-3.396;2023-07-28T08:42:30;19.30;99.90
46758;DHT22;32509;47.750;-3.396;2023-07-28T08:44:55;19.40;99.90
46758;DHT22;32509;47.750;-3.396;2023-07-28T08:47:21;19.40;99.90
46758;DHT22;32509;47.750;-3.396;2023-07-28T08:49:47;19.40;99.90
46758;DHT22;32509;47.750;-3.396;2023-07-28T08:52:16;19.40;99.90
46758;DHT22;32509;47.750;-3.396;2023-07-28T08:54:42;19.40;99.90
46758;DHT22;32509;47.750;-3.396;2023-07-28T08:57:09;19.40;99.90
46758;DHT22;32509;47.750;-3.396;2023-07-28T08:59:35;19.40;99.90
46758;DHT22;32509;47.750;-3.396;2023-07-28T09:02:02;19.40;99.90
46758;DHT22;32509;47.750;-3.396;2023-07-28T09:04:30;19.40;99.90
46758;DHT22;32509;47.750;-3.396;2023-07-28T09:06:55;19.50;99.90
46758;DHT22;32509;47.750;-3.396;2023-07-28T09:09:22;19.40;99.90
46758;DHT22;32509;47.750;-3.396;2023-07-28T09:11:50;19.50;99.90
46758;DHT22;32509;47.750;-3.396;2023-07-28T09:14:17;19.50;99.90
46758;DHT22;32509;47.750;-3.396;2023-07-28T09:16:45;19.50;99.90
46758;DHT22;32509;47.750;-3.396;2023-07-28T09:19:14;19.60;99.90
46758;DHT22;32509;47.750;-3.396;2023-07-28T09:21:42;19.60;99.90
46758;DHT22;32509;47.750;-3.396;2023-07-28T09:24:12;19.60;99.90
46758;DHT22;32509;47.750;-3.396;2023-07-28T09:26:38;19.60;99.90
46758;DHT22;32509;47.750;-3.396;2023-07-28T09:29:31;19.60;99.90
46758;DHT22;32509;47.750;-3.396;2023-07-28T09:32:06;19.70;99.90
46758;DHT22;32509;47.750;-3.396;2023-07-28T09:34:32;19.70;99.90
46758;DHT22;32509;47.750;-3.396;2023-07-28T09:36:59;19.70;99.90
46758;DHT22;32509;47.750;-3.396;2023-07-28T09:39:25;19.70;99.90
46758;DHT22;32509;47.750;-3.396;2023-07-28T09:41:51;19.70;99.90
46758;DHT22;32509;47.750;-3.396;2023-07-28T09:44:17;19.80;99.90
46758;DHT22;32509;47.750;-3.396;2023-07-28T09:47:03;19.80;99.90
46758;DHT22;32509;47.750;-3.396;2023-07-28T09:49:35;19.80;99.90
46758;DHT22;32509;47.750;-3.396;2023-07-28T09:52:08;19.80;99.90
46758;DHT22;32509;47.750;-3.396;2023-07-28T09:54:40;19.90;99.90
46758;DHT22;32509;47.750;-3.396;2023-07-28T09:57:12;19.90;99.90
46758;DHT22;32509;47.750;-3.396;2023-07-28T09:59:40;19.90;99.90
46758;DHT22;32509;47.750;-3.396;2023-07-28T10:02:07;19.90;99.90
46758;DHT22;32509;47.750;-3.396;2023-07-28T10:04:33;19.90;99.90
46758;DHT22;32509;47.750;-3.396;2023-07-28T10:07:16;19.90;99.90
46758;DHT22;32509;47.750;-3.396;2023-07-28T10:09:42;19.90;99.90
46758;DHT22;32509;47.750;-3.396;2023-07-28T10:12:24;20.00;99.90
46758;DHT22;32509;47.750;-3.396;2023-07-28T10:15:01;20.00;99.90
46758;DHT22;32509;47.750;-3.396;2023-07-28T10:17:34;20.00;99.90
46758;DHT22;32509;47.750;-3.396;2023-07-28T10:20:09;20.10;99.90
46758;DHT22;32509;47.750;-3.396;2023-07-28T10:22:53;20.00;99.90
46758;DHT22;32509;47.750;-3.396;2023-07-28T10:25:22;20.10;99.90
46758;DHT22;32509;47.750;-3.396;2023-07-28T10:27:50;20.10;99.90
46758;DHT22;32509;47.750;-3.396;2023-07-28T10:30:17;20.10;99.90
46758;DHT22;32509;47.750;-3.396;2023-07-28T10:32:49;20.10;99.90
46758;DHT22;32509;47.750;-3.396;2023-07-28T10:37:44;20.20;99.90
46758;DHT22;32509;47.750;-3.396;2023-07-28T10:40:30;20.10;99.90
46758;DHT22;32509;47.750;-3.396;2023-07-28T10:42:57;20.20;99.90
46758;DHT22;32509;47.750;-3.396;2023-07-28T10:45:25;20.20;99.90
46758;DHT22;32509;47.750;-3.396;2023-07-28T10:47:53;20.30;99.90
46758;DHT22;32509;47.750;-3.396;2023-07-28T10:50:22;20.20;99.90
46758;DHT22;32509;47.750;-3.396;2023-07-28T10:52:48;20.20;99.90
46758;DHT22;32509;47.750;-3.396;2023-07-28T10:55:14;20.30;99.90
46758;DHT22;32509;47.750;-3.396;2023-07-28T10:57:44;20.30;99.90
46758;DHT22;32509;47.750;-3.396;2023-07-28T11:00:16;20.30;99.90
46758;DHT22;32509;47.750;-3.396;2023-07-28T11:02:47;20.30;99.90
46758;DHT22;32509;47.750;-3.396;2023-07-28T11:05:23;20.40;99.90
46758;DHT22;32509;47.750;-3.396;2023-07-28T11:07:50;20.30;99.90
46758;DHT22;32509;47.750;-3.396;2023-07-28T11:10:16;20.30;99.90
46758;DHT22;32509;47.750;-3.396;2023-07-28T11:12:43;20.40;99.90
46758;DHT22;32509;47.750;-3.396;2023-07-28T11:15:11;20.40;99.90
46758;DHT22;32509;47.750;-3.396;2023-07-28T11:17:41;20.40;99.90
46758;DHT22;32509;47.750;-3.396;2023-07-28T11:20:26;20.40;99.90
46758;DHT22;32509;47.750;-3.396;2023-07-28T11:23:04;20.40;99.90
46758;DHT22;32509;47.750;-3.396;2023-07-28T11:25:31;20.40;99.90
46758;DHT22;32509;47.750;-3.396;2023-07-28T11:27:57;20.40;99.90
46758;DHT22;32509;47.750;-3.396;2023-07-28T11:30:24;20.40;99.90
46758;DHT22;32509;47.750;-3.396;2023-07-28T11:32:52;20.40;99.90
46758;DHT22;32509;47.750;-3.396;2023-07-28T11:35:20;20.40;99.90
46758;DHT22;32509;47.750;-3.396;2023-07-28T11:37:48;20.40;99.90
46758;DHT22;32509;47.750;-3.396;2023-07-28T11:40:17;20.50;99.90
46758;DHT22;32509;47.750;-3.396;2023-07-28T11:42:53;20.60;99.90
46758;DHT22;32509;47.750;-3.396;2023-07-28T11:45:20;20.60;99.90
46758;DHT22;32509;47.750;-3.396;2023-07-28T11:48:06;20.50;99.90
46758;DHT22;32509;47.750;-3.396;2023-07-28T11:50:38;20.50;99.90
46758;DHT22;32509;47.750;-3.396;2023-07-28T11:53:05;20.50;99.90
46758;DHT22;32509;47.750;-3.396;2023-07-28T11:55:38;20.60;99.90
46758;DHT22;32509;47.750;-3.396;2023-07-28T11:58:05;20.60;99.90
46758;DHT22;32509;47.750;-3.396;2023-07-28T12:00:36;20.60;99.90
46758;DHT22;32509;47.750;-3.396;2023-07-28T12:05:32;20.50;99.90
46758;DHT22;32509;47.750;-3.396;2023-07-28T12:07:58;20.50;99.90
46758;DHT22;32509;47.750;-3.396;2023-07-28T12:10:25;20.60;99.90
46758;DHT22;32509;47.750;-3.396;2023-07-28T12:12:50;20.60;99.90
46758;DHT22;32509;47.750;-3.396;2023-07-28T12:15:29;20.60;99.90
46758;DHT22;32509;47.750;-3.396;2023-07-28T12:20:44;20.60;99.90
46758;DHT22;32509;47.750;-3.396;2023-07-28T12:23:13;20.60;99.90
46758;DHT22;32509;47.750;-3.396;2023-07-28T12:25:39;20.60;99.90
46758;DHT22;32509;47.750;-3.396;2023-07-28T12:28:06;20.60;99.90
46758;DHT22;32509;47.750;-3.396;2023-07-28T12:30:35;20.60;99.90
46758;DHT22;32509;47.750;-3.396;2023-07-28T12:33:05;20.70;99.90
46758;DHT22;32509;47.750;-3.396;2023-07-28T12:35:33;20.70;99.90
46758;DHT22;32509;47.750;-3.396;2023-07-28T12:38:02;20.70;99.90
46758;DHT22;32509;47.750;-3.396;2023-07-28T12:40:32;20.70;99.90
46758;DHT22;32509;47.750;-3.396;2023-07-28T12:43:00;20.70;99.90
46758;DHT22;32509;47.750;-3.396;2023-07-28T12:45:26;20.70;99.90
46758;DHT22;32509;47.750;-3.396;2023-07-28T12:47:52;20.80;99.90
46758;DHT22;32509;47.750;-3.396;2023-07-28T12:50:20;20.80;99.90
46758;DHT22;32509;47.750;-3.396;2023-07-28T12:52:47;20.90;99.90
46758;DHT22;32509;47.750;-3.396;2023-07-28T12:55:13;20.90;99.90
46758;DHT22;32509;47.750;-3.396;2023-07-28T12:57:43;20.90;99.90
46758;DHT22;32509;47.750;-3.396;2023-07-28T13:00:09;20.90;99.90
46758;DHT22;32509;47.750;-3.396;2023-07-28T13:02:42;21.00;99.90
46758;DHT22;32509;47.750;-3.396;2023-07-28T13:05:09;21.00;99.90
46758;DHT22;32509;47.750;-3.396;2023-07-28T13:07:39;21.00;99.90
46758;DHT22;32509;47.750;-3.396;2023-07-28T13:10:07;21.00;99.90
46758;DHT22;32509;47.750;-3.396;2023-07-28T13:12:34;21.00;99.90
46758;DHT22;32509;47.750;-3.396;2023-07-28T13:15:00;21.10;99.90
46758;DHT22;32509;47.750;-3.396;2023-07-28T13:17:26;21.10;99.90
46758;DHT22;32509;47.750;-3.396;2023-07-28T13:19:52;21.10;99.90
46758;DHT22;32509;47.750;-3.396;2023-07-28T13:22:18;21.10;99.90
46758;DHT22;32509;47.750;-3.396;2023-07-28T13:24:43;21.10;99.90
46758;DHT22;32509;47.750;-3.396;2023-07-28T13:27:09;21.10;99.90
46758;DHT22;32509;47.750;-3.396;2023-07-28T13:29:35;21.10;99.90
46758;DHT22;32509;47.750;-3.396;2023-07-28T13:32:01;21.10;99.90
46758;DHT22;32509;47.750;-3.396;2023-07-28T13:34:27;21.10;99.90
46758;DHT22;32509;47.750;-3.396;2023-07-28T13:36:59;21.20;99.90
46758;DHT22;32509;47.750;-3.396;2023-07-28T13:39:25;21.10;99.90
46758;DHT22;32509;47.750;-3.396;2023-07-28T13:41:50;21.10;99.90
46758;DHT22;32509;47.750;-3.396;2023-07-28T13:44:16;21.10;99.90
46758;DHT22;32509;47.750;-3.396;2023-07-28T13:46:42;21.00;99.90
46758;DHT22;32509;47.750;-3.396;2023-07-28T13:49:08;21.00;99.90
46758;DHT22;32509;47.750;-3.396;2023-07-28T13:51:33;21.10;99.90
46758;DHT22;32509;47.750;-3.396;2023-07-28T13:53:59;21.10;99.90
46758;DHT22;32509;47.750;-3.396;2023-07-28T13:56:25;21.00;99.90
46758;DHT22;32509;47.750;-3.396;2023-07-28T13:58:51;21.00;99.90
46758;DHT22;32509;47.750;-3.396;2023-07-28T14:01:17;21.00;99.90
46758;DHT22;32509;47.750;-3.396;2023-07-28T14:03:42;21.00;99.90
46758;DHT22;32509;47.750;-3.396;2023-07-28T14:06:09;21.00;99.90
46758;DHT22;32509;47.750;-3.396;2023-07-28T14:08:35;21.00;99.90
46758;DHT22;32509;47.750;-3.396;2023-07-28T14:11:01;21.00;99.90
46758;DHT22;32509;47.750;-3.396;2023-07-28T14:13:27;21.00;99.90
46758;DHT22;32509;47.750;-3.396;2023-07-28T14:15:53;21.00;99.90
46758;DHT22;32509;47.750;-3.396;2023-07-28T14:18:18;20.90;99.90
46758;DHT22;32509;47.750;-3.396;2023-07-28T14:20:44;21.00;99.90
46758;DHT22;32509;47.750;-3.396;2023-07-28T14:23:27;20.90;99.90
46758;DHT22;32509;47.750;-3.396;2023-07-28T14:25:54;20.90;99.90
46758;DHT22;32509;47.750;-3.396;2023-07-28T14:28:20;20.90;99.90
46758;DHT22;32509;47.750;-3.396;2023-07-28T14:30:47;20.90;99.90
46758;DHT22;32509;47.750;-3.396;2023-07-28T14:33:14;20.90;99.90
46758;DHT22;32509;47.750;-3.396;2023-07-28T14:35:40;20.90;99.90
46758;DHT22;32509;47.750;-3.396;2023-07-28T14:38:06;20.90;99.90
46758;DHT22;32509;47.750;-3.396;2023-07-28T14:40:32;20.90;99.90
46758;DHT22;32509;47.750;-3.396;2023-07-28T14:42:58;20.90;99.90
46758;DHT22;32509;47.750;-3.396;2023-07-28T14:45:24;20.90;99.90
46758;DHT22;32509;47.750;-3.396;2023-07-28T14:47:49;20.90;99.90
46758;DHT22;32509;47.750;-3.396;2023-07-28T14:50:15;20.90;99.90
46758;DHT22;32509;47.750;-3.396;2023-07-28T14:52:41;20.80;99.90
46758;DHT22;32509;47.750;-3.396;2023-07-28T14:55:07;20.80;99.90
46758;DHT22;32509;47.750;-3.396;2023-07-28T14:57:36;20.80;99.90
46758;DHT22;32509;47.750;-3.396;2023-07-28T15:00:04;20.80;99.90
46758;DHT22;32509;47.750;-3.396;2023-07-28T15:02:33;20.80;99.90
46758;DHT22;32509;47.750;-3.396;2023-07-28T15:05:01;20.80;99.90
46758;DHT22;32509;47.750;-3.396;2023-07-28T15:07:27;20.80;99.90
46758;DHT22;32509;47.750;-3.396;2023-07-28T15:09:53;20.80;99.90
46758;DHT22;32509;47.750;-3.396;2023-07-28T15:12:19;20.80;99.90
46758;DHT22;32509;47.750;-3.396;2023-07-28T15:14:44;20.80;99.90
46758;DHT22;32509;47.750;-3.396;2023-07-28T15:17:13;20.80;99.90
46758;DHT22;32509;47.750;-3.396;2023-07-28T15:19:39;20.80;99.90
46758;DHT22;32509;47.750;-3.396;2023-07-28T15:22:05;20.80;99.90
46758;DHT22;32509;47.750;-3.396;2023-07-28T15:24:31;20.80;99.90
46758;DHT22;32509;47.750;-3.396;2023-07-28T15:26:57;20.80;99.90